Time;durP1;ratioP1;P1;durP2;ratioP2;P2;SDS_P1;SDS_P2;PMS_P1;PMS_P2;Temp;Humidity;BMP_temperature;BMP_pressure;BME280_temperature;BME280_humidity;BME280_pressure;Samples;Min_cycle;Max_cycle;Signal;HPM_P1;HPM_P2
2022/09/14 00:02:20;;;;;;;3.40;2.75;;;20.90;99.90;;;;;;5060744;28;20176;-71
2022/09/14 00:04:50;;;;;;;4.43;2.70;;;20.90;99.90;;;;;;5068322;28;20196;-72
2022/09/14 00:07:16;;;;;;;5.35;3.03;;;20.90;99.90;;;;;;5072851;28;20201;-71
2022/09/14 00:09:44;;;;;;;4.97;3.15;;;20.90;99.90;;;;;;5060606;28;20173;-72
2022/09/14 00:12:09;;;;;;;3.17;2.67;;;20.90;99.90;;;;;;5072796;28;20220;-71
2022/09/14 00:14:36;;;;;;;4.47;2.95;;;20.90;99.90;;;;;;5070570;28;20269;-72
2022/09/14 00:17:06;;;;;;;3.40;2.90;;;20.90;99.90;;;;;;5075207;28;20168;-72
2022/09/14 00:19:32;;;;;;;4.57;3.05;;;20.90;99.90;;;;;;5088373;28;20176;-71
2022/09/14 00:21:58;;;;;;;3.50;3.00;;;20.90;99.90;;;;;;5063979;28;20191;-72
2022/09/14 00:24:31;;;;;;;3.42;2.90;;;20.80;99.90;;;;;;5078432;28;20208;-70
2022/09/14 00:26:57;;;;;;;3.95;3.47;;;20.80;99.90;;;;;;5078394;28;20196;-72
2022/09/14 00:29:25;;;;;;;3.65;3.22;;;20.80;99.90;;;;;;5069081;28;20176;-73
2022/09/14 00:31:54;;;;;;;4.65;3.10;;;20.80;99.90;;;;;;5068590;28;20199;-72
2022/09/14 00:34:20;;;;;;;4.40;3.45;;;20.80;99.90;;;;;;5068805;28;20187;-72
2022/09/14 00:36:48;;;;;;;5.28;3.83;;;20.80;99.90;;;;;;5073464;28;20190;-72
2022/09/14 00:39:18;;;;;;;5.55;3.78;;;20.80;99.90;;;;;;5066321;28;20200;-72
2022/09/14 00:41:53;;;;;;;6.22;4.07;;;20.70;99.90;;;;;;5065981;28;20266;-71
2022/09/14 00:44:19;;;;;;;4.72;3.55;;;20.70;99.90;;;;;;5062790;28;20172;-72
2022/09/14 00:46:51;;;;;;;7.25;4.40;;;20.70;99.90;;;;;;5065642;28;20316;-72
2022/09/14 00:49:36;;;;;;;6.40;4.07;;;20.70;99.90;;;;;;5064177;28;20180;-70
2022/09/14 00:52:10;;;;;;;4.57;3.80;;;20.70;99.90;;;;;;5065875;28;20167;-72
2022/09/14 00:54:42;;;;;;;6.05;4.47;;;20.70;99.90;;;;;;5062562;28;20196;-71
2022/09/14 00:57:08;;;;;;;4.95;3.90;;;20.70;99.90;;;;;;5058297;28;20177;-72
2022/09/14 00:59:38;;;;;;;5.57;4.10;;;20.60;99.90;;;;;;5076471;28;20183;-72
2022/09/14 01:02:05;;;;;;;5.15;3.92;;;20.60;99.90;;;;;;5075223;28;20172;-72
2022/09/14 01:04:34;;;;;;;5.82;4.22;;;20.60;99.90;;;;;;5067060;28;20179;-72
2022/09/14 01:07:10;;;;;;;5.57;4.43;;;20.60;99.90;;;;;;5066932;28;20196;-72
2022/09/14 01:10:23;;;;;;;4.43;4.03;;;20.60;99.90;;;;;;5077707;28;20171;-72
2022/09/14 01:12:55;;;;;;;4.93;4.30;;;20.60;99.90;;;;;;5045857;28;20176;-72
2022/09/14 01:15:25;;;;;;;5.78;4.30;;;20.60;99.90;;;;;;5079611;28;20192;-72
2022/09/14 01:18:17;;;;;;;7.78;4.60;;;20.60;99.90;;;;;;5068536;28;20188;-70
2022/09/14 01:21:09;;;;;;;5.78;4.63;;;20.60;99.90;;;;;;5064275;28;20185;-71
2022/09/14 01:24:10;;;;;;;6.88;4.80;;;20.70;99.90;;;;;;5071091;28;20420;-72
2022/09/14 01:26:57;;;;;;;7.43;4.43;;;20.70;99.90;;;;;;5074172;28;20202;-72
2022/09/14 01:29:40;;;;;;;5.80;4.88;;;20.70;99.90;;;;;;5073307;28;20187;-72
2022/09/14 01:32:35;;;;;;;6.53;4.55;;;20.70;99.90;;;;;;5074592;28;20179;-73
2022/09/14 01:35:09;;;;;;;6.50;5.22;;;20.60;99.90;;;;;;5084473;28;20180;-72
2022/09/14 01:37:48;;;;;;;6.50;4.97;;;20.60;99.90;;;;;;5080330;28;20175;-72
2022/09/14 01:40:26;;;;;;;7.53;5.72;;;20.60;99.90;;;;;;5073031;28;20183;-72
2022/09/14 01:43:01;;;;;;;6.93;5.00;;;20.60;99.90;;;;;;5074127;28;20215;-71
2022/09/14 01:45:29;;;;;;;6.72;5.32;;;20.60;99.90;;;;;;5069934;28;20191;-70
2022/09/14 01:48:01;;;;;;;6.30;5.05;;;20.60;99.90;;;;;;5071518;28;20195;-73
2022/09/14 01:50:43;;;;;;;6.57;4.57;;;20.60;99.90;;;;;;5081534;28;20175;-72
2022/09/14 01:53:11;;;;;;;7.18;5.40;;;20.60;99.90;;;;;;5070091;28;20177;-70
2022/09/14 01:56:02;;;;;;;6.90;5.28;;;20.60;99.90;;;;;;5062092;28;20268;-71
2022/09/14 01:58:59;;;;;;;8.63;5.68;;;20.60;99.90;;;;;;5072935;28;20206;-72
2022/09/14 02:01:34;;;;;;;8.45;5.97;;;20.60;99.90;;;;;;5071566;28;20338;-72
2022/09/14 02:04:04;;;;;;;7.30;5.38;;;20.60;99.90;;;;;;5079647;28;20206;-72
2022/09/14 02:06:35;;;;;;;7.45;5.55;;;20.60;99.90;;;;;;5080617;28;20211;-73
2022/09/14 02:09:02;;;;;;;7.68;5.40;;;20.60;99.90;;;;;;5080926;28;20168;-72
2022/09/14 02:11:28;;;;;;;8.20;5.80;;;20.60;99.90;;;;;;5082795;28;20183;-72
2022/09/14 02:13:54;;;;;;;9.18;6.15;;;20.60;99.90;;;;;;5081293;28;20172;-73
2022/09/14 02:16:24;;;;;;;8.55;6.25;;;20.60;99.90;;;;;;5066419;28;20172;-70
2022/09/14 02:18:49;;;;;;;8.50;6.75;;;20.60;99.90;;;;;;5078114;28;20314;-72
2022/09/14 02:21:30;;;;;;;9.35;7.05;;;20.60;99.90;;;;;;5071908;28;20204;-72
2022/09/14 02:24:00;;;;;;;15.45;6.95;;;20.60;99.90;;;;;;5071581;28;20179;-68
2022/09/14 02:26:28;;;;;;;10.27;7.22;;;20.60;99.90;;;;;;5074272;28;20200;-71
2022/09/14 02:28:55;;;;;;;17.08;7.68;;;20.60;99.90;;;;;;5076689;28;20172;-73
2022/09/14 02:31:38;;;;;;;10.95;7.53;;;20.60;99.90;;;;;;5069129;28;20226;-72
2022/09/14 02:34:09;;;;;;;11.13;6.72;;;20.50;99.90;;;;;;5072943;28;20211;-71
2022/09/14 02:37:01;;;;;;;10.07;6.80;;;20.50;99.90;;;;;;5067358;28;20223;-72
2022/09/14 02:39:55;;;;;;;10.48;7.07;;;20.50;99.90;;;;;;5092887;28;20190;-72
2022/09/14 02:42:40;;;;;;;9.77;7.00;;;20.50;99.90;;;;;;5068719;28;20200;-72
2022/09/14 02:45:12;;;;;;;10.50;6.65;;;20.50;99.90;;;;;;5078675;28;20185;-72
2022/09/14 02:48:09;;;;;;;9.90;6.78;;;20.50;99.90;;;;;;5063695;28;20220;-73
2022/09/14 02:50:56;;;;;;;11.55;7.47;;;20.50;99.90;;;;;;5059605;28;20195;-73
2022/09/14 02:53:25;;;;;;;11.38;7.38;;;20.50;99.90;;;;;;5080754;28;20243;-72
2022/09/14 02:55:56;;;;;;;10.93;7.88;;;20.50;99.90;;;;;;5080644;28;20173;-72
2022/09/14 02:58:21;;;;;;;10.98;7.63;;;20.40;99.90;;;;;;5076426;28;20188;-73
2022/09/14 03:00:49;;;;;;;11.13;8.10;;;20.50;99.90;;;;;;5072143;28;20202;-73
2022/09/14 03:03:17;;;;;;;9.88;7.20;;;20.50;99.90;;;;;;5071819;28;20221;-72
2022/09/14 03:05:43;;;;;;;12.23;7.88;;;20.40;99.90;;;;;;5076139;28;20188;-72
2022/09/14 03:08:09;;;;;;;10.63;7.45;;;20.50;99.90;;;;;;5071080;28;20272;-72
2022/09/14 03:10:35;;;;;;;9.88;7.60;;;20.50;99.90;;;;;;5076082;28;20260;-73
2022/09/14 03:13:01;;;;;;;10.30;6.85;;;20.40;99.90;;;;;;5065972;28;20179;-71
2022/09/14 03:15:30;;;;;;;9.85;6.90;;;20.50;99.90;;;;;;5079259;28;20203;-72
2022/09/14 03:17:55;;;;;;;9.23;6.68;;;20.40;99.90;;;;;;5074646;28;20203;-72
2022/09/14 03:20:24;;;;;;;9.52;6.93;;;20.40;99.90;;;;;;5077636;28;20214;-73
2022/09/14 03:22:52;;;;;;;7.78;6.35;;;20.50;99.90;;;;;;5077143;28;20328;-73
2022/09/14 03:25:18;;;;;;;9.60;6.55;;;20.50;99.90;;;;;;5075967;28;20200;-73
2022/09/14 03:27:52;;;;;;;8.13;6.38;;;20.50;99.90;;;;;;5089880;28;20221;-73
2022/09/14 03:30:19;;;;;;;9.70;6.93;;;20.50;99.90;;;;;;5077950;28;20171;-73
2022/09/14 03:32:47;;;;;;;7.82;6.20;;;20.50;99.90;;;;;;5070068;28;20176;-73
2022/09/14 03:35:16;;;;;;;7.22;5.85;;;20.50;99.90;;;;;;5066867;28;20168;-73
2022/09/14 03:37:43;;;;;;;10.52;7.13;;;20.50;99.90;;;;;;5064596;28;20233;-73
2022/09/14 03:40:11;;;;;;;8.68;6.35;;;20.50;99.90;;;;;;5067820;28;20173;-75
2022/09/14 03:42:44;;;;;;;8.35;6.00;;;20.50;99.90;;;;;;5071935;28;20249;-72
2022/09/14 03:45:17;;;;;;;8.20;6.07;;;20.50;99.90;;;;;;5076898;28;20179;-73
2022/09/14 03:47:43;;;;;;;8.07;6.40;;;20.50;99.90;;;;;;5077488;28;20284;-73
2022/09/14 03:50:12;;;;;;;9.25;6.72;;;20.50;99.90;;;;;;5066461;28;20235;-73
2022/09/14 03:52:41;;;;;;;8.90;6.28;;;20.50;99.90;;;;;;5069803;28;20196;-73
2022/09/14 03:55:08;;;;;;;9.88;6.80;;;20.50;99.90;;;;;;5080147;28;20184;-73
2022/09/14 03:57:36;;;;;;;8.68;6.30;;;20.50;99.90;;;;;;5073784;28;20192;-73
2022/09/14 04:00:06;;;;;;;9.05;6.35;;;20.50;99.90;;;;;;5071568;28;20187;-72
2022/09/14 04:02:32;;;;;;;7.53;5.88;;;20.50;99.90;;;;;;5075373;28;20199;-72
2022/09/14 04:04:57;;;;;;;8.00;6.13;;;20.50;99.90;;;;;;5077780;28;20259;-73
2022/09/14 04:07:25;;;;;;;8.32;6.53;;;20.50;99.90;;;;;;5076841;28;20190;-73
2022/09/14 04:09:53;;;;;;;8.82;6.53;;;20.50;99.90;;;;;;5072749;28;20192;-73
2022/09/14 04:12:21;;;;;;;8.63;6.70;;;20.50;99.90;;;;;;5078304;28;20172;-72
2022/09/14 04:14:46;;;;;;;10.82;7.18;;;20.40;99.90;;;;;;5067354;28;20191;-73
2022/09/14 04:17:12;;;;;;;9.73;7.10;;;20.40;99.90;;;;;;5073628;28;20195;-72
2022/09/14 04:19:42;;;;;;;8.77;6.72;;;20.40;99.90;;;;;;5061023;28;20176;-71
2022/09/14 04:22:08;;;;;;;9.57;6.97;;;20.40;99.90;;;;;;5074603;28;20203;-73
2022/09/14 04:24:36;;;;;;;10.57;7.78;;;20.40;99.90;;;;;;5073198;28;20270;-73
2022/09/14 04:27:02;;;;;;;8.43;6.15;;;20.40;99.90;;;;;;5061299;28;20196;-73
2022/09/14 04:29:30;;;;;;;12.60;6.80;;;20.40;99.90;;;;;;5061668;28;20197;-73
2022/09/14 04:31:56;;;;;;;11.65;8.32;;;20.40;99.90;;;;;;5078093;28;20176;-73
2022/09/14 04:34:21;;;;;;;11.45;7.45;;;20.40;99.90;;;;;;5058245;28;20175;-72
2022/09/14 04:36:49;;;;;;;9.95;7.38;;;20.40;99.90;;;;;;5077567;28;20196;-71
2022/09/14 04:39:15;;;;;;;10.07;7.82;;;20.40;99.90;;;;;;5071184;28;20219;-73
2022/09/14 04:41:41;;;;;;;10.75;7.10;;;20.40;99.90;;;;;;5076351;28;20211;-71
2022/09/14 04:44:09;;;;;;;10.90;6.82;;;20.40;99.90;;;;;;5059347;28;20180;-71
2022/09/14 04:46:38;;;;;;;9.70;7.03;;;20.40;99.90;;;;;;5058684;28;20200;-72
2022/09/14 04:49:06;;;;;;;8.80;6.57;;;20.40;99.90;;;;;;5072683;28;20280;-72
2022/09/14 04:51:36;;;;;;;9.23;7.30;;;20.40;99.90;;;;;;5077303;28;20168;-73
2022/09/14 04:54:03;;;;;;;9.65;7.30;;;20.40;99.90;;;;;;5058197;28;20259;-72
2022/09/14 04:56:32;;;;;;;8.93;6.95;;;20.40;99.90;;;;;;5065047;28;20175;-72
2022/09/14 04:59:03;;;;;;;9.35;7.18;;;20.40;99.90;;;;;;5077546;28;20203;-72
2022/09/14 05:01:33;;;;;;;10.85;7.35;;;20.40;99.90;;;;;;5078126;28;20283;-73
2022/09/14 05:04:01;;;;;;;10.50;7.65;;;20.30;99.90;;;;;;5077551;28;20210;-71
2022/09/14 05:06:30;;;;;;;8.90;7.38;;;20.30;99.90;;;;;;5069301;28;20196;-71
2022/09/14 05:08:58;;;;;;;7.68;6.75;;;20.40;99.90;;;;;;5072747;28;20209;-73
2022/09/14 05:11:27;;;;;;;9.38;7.18;;;20.30;99.90;;;;;;5062599;28;20228;-73
2022/09/14 05:13:55;;;;;;;7.75;6.40;;;20.30;99.90;;;;;;5086334;28;20271;-73
2022/09/14 05:16:27;;;;;;;9.80;7.22;;;20.30;99.90;;;;;;5064370;28;20176;-73
2022/09/14 05:18:57;;;;;;;10.45;7.68;;;20.30;99.90;;;;;;5067864;28;20180;-73
2022/09/14 05:21:23;;;;;;;12.82;9.07;;;20.30;99.90;;;;;;5071970;28;20260;-73
2022/09/14 05:23:57;;;;;;;11.40;8.75;;;20.30;99.90;;;;;;5068245;28;20279;-73
2022/09/14 05:26:25;;;;;;;12.07;8.43;;;20.30;99.90;;;;;;5083741;28;20241;-77
2022/09/14 05:28:53;;;;;;;13.23;9.05;;;20.30;99.90;;;;;;5075662;28;20192;-77
2022/09/14 05:31:20;;;;;;;12.60;8.48;;;20.30;99.90;;;;;;5074781;28;20208;-86
2022/09/14 05:33:48;;;;;;;13.13;8.45;;;20.30;99.90;;;;;;5059151;28;20196;-74
2022/09/14 05:36:14;;;;;;;12.35;8.48;;;20.30;99.90;;;;;;5082056;28;20168;-70
2022/09/14 05:38:40;;;;;;;13.02;8.80;;;20.30;99.90;;;;;;5084047;28;20195;-74
2022/09/14 05:41:08;;;;;;;11.88;8.00;;;20.30;99.90;;;;;;5065719;28;20171;-75
2022/09/14 05:43:34;;;;;;;12.00;8.50;;;20.30;99.90;;;;;;5079929;28;20168;-74
2022/09/14 05:46:05;;;;;;;15.68;11.35;;;20.30;99.90;;;;;;5063558;28;20354;-74
2022/09/14 05:48:34;;;;;;;12.73;8.75;;;20.30;99.90;;;;;;5078110;28;20172;-74
2022/09/14 05:51:04;;;;;;;15.52;9.93;;;20.30;99.90;;;;;;5080098;28;20176;-73
2022/09/14 05:53:30;;;;;;;12.68;8.52;;;20.30;99.90;;;;;;5080690;28;20196;-72
2022/09/14 05:56:08;;;;;;;13.82;8.57;;;20.30;99.90;;;;;;5080969;28;20245;-73
2022/09/14 05:58:35;;;;;;;13.40;8.68;;;20.30;99.90;;;;;;5078819;28;20167;-73
2022/09/14 06:01:25;;;;;;;10.68;8.02;;;20.20;99.90;;;;;;5062657;28;20268;-73
2022/09/14 06:03:53;;;;;;;13.27;8.13;;;20.20;99.90;;;;;;5075298;28;20172;-73
2022/09/14 06:06:22;;;;;;;13.75;8.43;;;20.20;99.90;;;;;;5081650;28;20200;-72
2022/09/14 06:08:51;;;;;;;30.02;21.88;;;20.30;99.90;;;;;;5064336;28;20180;-73
2022/09/14 06:11:20;;;;;;;25.30;20.05;;;20.20;99.90;;;;;;5066893;28;20253;-73
2022/09/14 06:13:46;;;;;;;15.52;11.48;;;20.30;99.90;;;;;;5070293;28;20197;-74
2022/09/14 06:16:18;;;;;;;13.68;10.15;;;20.30;99.90;;;;;;5083354;28;20175;-72
2022/09/14 06:18:45;;;;;;;12.05;8.85;;;20.30;99.90;;;;;;5080153;28;20185;-72
2022/09/14 06:21:16;;;;;;;11.15;8.40;;;20.30;99.90;;;;;;5088632;28;20225;-72
2022/09/14 06:23:42;;;;;;;10.27;7.47;;;20.30;99.90;;;;;;5084023;28;20172;-73
2022/09/14 06:26:08;;;;;;;11.25;7.63;;;20.30;99.90;;;;;;5068511;28;20556;-69
2022/09/14 06:28:34;;;;;;;11.80;7.22;;;20.30;99.90;;;;;;5066400;28;20168;-73
2022/09/14 06:31:06;;;;;;;10.57;6.97;;;20.30;99.90;;;;;;5068435;28;20226;-73
2022/09/14 06:33:32;;;;;;;10.57;7.43;;;20.30;99.90;;;;;;5081444;28;20183;-73
2022/09/14 06:36:00;;;;;;;10.65;7.00;;;20.30;99.90;;;;;;5084236;28;20168;-72
2022/09/14 06:38:29;;;;;;;8.55;6.07;;;20.30;99.90;;;;;;5083754;28;20179;-72
2022/09/14 06:40:59;;;;;;;8.60;6.45;;;20.30;99.90;;;;;;5065594;28;20259;-74
2022/09/14 06:43:32;;;;;;;9.30;6.53;;;20.30;99.90;;;;;;5068156;28;20172;-74
2022/09/14 06:45:59;;;;;;;9.82;6.90;;;20.30;99.90;;;;;;5093036;28;20199;-70
2022/09/14 06:48:27;;;;;;;8.30;6.18;;;20.30;99.90;;;;;;5090896;28;20191;-72
2022/09/14 06:50:53;;;;;;;8.27;5.93;;;20.30;99.90;;;;;;5083225;28;20179;-72
2022/09/14 06:53:18;;;;;;;9.43;5.82;;;20.30;99.90;;;;;;5084273;28;20193;-73
2022/09/14 06:55:44;;;;;;;9.13;6.63;;;20.30;99.90;;;;;;5068353;28;20172;-72
2022/09/14 06:58:13;;;;;;;10.18;6.80;;;20.30;99.90;;;;;;5079454;28;20267;-72
2022/09/14 07:00:39;;;;;;;9.10;6.68;;;20.30;99.90;;;;;;5072368;28;20179;-72
2022/09/14 07:03:05;;;;;;;10.73;6.80;;;20.30;99.90;;;;;;5078653;28;20173;-72
2022/09/14 07:05:31;;;;;;;9.35;6.63;;;20.30;99.90;;;;;;5083360;28;20203;-72
2022/09/14 07:07:59;;;;;;;7.15;5.20;;;20.30;99.90;;;;;;5069829;28;20202;-71
2022/09/14 07:10:27;;;;;;;7.25;5.35;;;20.40;99.90;;;;;;5082826;28;20172;-72
2022/09/14 07:12:57;;;;;;;6.40;4.75;;;20.30;99.90;;;;;;5078528;28;20220;-72
2022/09/14 07:15:23;;;;;;;9.98;6.25;;;20.40;99.90;;;;;;5079024;28;20172;-72
2022/09/14 07:17:49;;;;;;;8.15;5.63;;;20.40;99.90;;;;;;5070071;28;20271;-72
2022/09/14 07:20:15;;;;;;;7.88;6.05;;;20.40;99.90;;;;;;5078023;28;20183;-72
2022/09/14 07:22:41;;;;;;;7.95;6.03;;;20.40;99.90;;;;;;5069911;28;20173;-73
2022/09/14 07:25:08;;;;;;;7.47;5.45;;;20.40;99.90;;;;;;5077348;28;20219;-72
2022/09/14 07:27:34;;;;;;;8.73;5.85;;;20.40;99.90;;;;;;5081958;28;20397;-72
2022/09/14 07:30:02;;;;;;;8.45;5.97;;;20.40;99.90;;;;;;5069588;28;20238;-72
2022/09/14 07:32:28;;;;;;;7.43;5.65;;;20.40;99.90;;;;;;5061623;28;20204;-72
2022/09/14 07:34:53;;;;;;;7.78;5.63;;;20.40;99.90;;;;;;5065889;28;20255;-72
2022/09/14 07:37:21;;;;;;;22.77;18.50;;;20.40;99.90;;;;;;5081546;28;20278;-72
2022/09/14 07:39:47;;;;;;;12.43;9.68;;;20.40;99.90;;;;;;5075873;28;20176;-72
2022/09/14 07:42:13;;;;;;;12.32;9.77;;;20.40;99.90;;;;;;5082914;28;20175;-72
2022/09/14 07:44:38;;;;;;;10.60;7.80;;;20.40;99.90;;;;;;5077950;28;20199;-72
2022/09/14 07:47:04;;;;;;;8.63;6.85;;;20.40;99.90;;;;;;5074635;28;20198;-72
2022/09/14 07:49:34;;;;;;;8.93;6.82;;;20.50;99.90;;;;;;5082310;28;20183;-73
2022/09/14 07:52:00;;;;;;;10.10;7.53;;;20.50;99.90;;;;;;5081797;28;20278;-71
2022/09/14 07:54:30;;;;;;;8.23;6.30;;;20.40;99.90;;;;;;5075698;28;20196;-72
2022/09/14 07:56:56;;;;;;;9.05;6.80;;;20.50;99.90;;;;;;5076298;28;20186;-72
2022/09/14 07:59:22;;;;;;;8.77;6.47;;;20.40;99.90;;;;;;5076311;28;20177;-72
2022/09/14 08:01:50;;;;;;;15.68;12.13;;;20.40;99.90;;;;;;5088407;28;20239;-71
2022/09/14 08:04:16;;;;;;;11.07;8.77;;;20.40;99.90;;;;;;5082633;28;20184;-73
2022/09/14 08:06:41;;;;;;;11.90;7.68;;;20.40;99.90;;;;;;5078257;28;20249;-73
2022/09/14 08:09:07;;;;;;;9.43;7.07;;;20.50;99.90;;;;;;5081488;28;20191;-72
2022/09/14 08:11:36;;;;;;;9.20;6.18;;;20.40;99.90;;;;;;5079312;28;20208;-72
2022/09/14 08:14:09;;;;;;;6.68;5.43;;;20.40;99.90;;;;;;5079417;28;20310;-71
2022/09/14 08:16:37;;;;;;;7.88;5.65;;;20.40;99.90;;;;;;5082015;28;20193;-73
2022/09/14 08:19:05;;;;;;;6.90;5.43;;;20.40;99.90;;;;;;5079463;28;20210;-72
2022/09/14 08:21:32;;;;;;;7.32;5.55;;;20.50;99.90;;;;;;5083187;28;20439;-72
2022/09/14 08:24:01;;;;;;;6.88;5.30;;;20.50;99.90;;;;;;5084318;28;20198;-72
2022/09/14 08:26:27;;;;;;;7.47;5.60;;;20.50;99.90;;;;;;5061897;28;20201;-72
2022/09/14 08:28:54;;;;;;;7.70;5.40;;;20.50;99.90;;;;;;5061841;28;20279;-73
2022/09/14 08:31:23;;;;;;;6.70;4.72;;;20.50;99.90;;;;;;5076936;28;20223;-71
2022/09/14 08:33:57;;;;;;;6.85;4.88;;;20.50;99.90;;;;;;5085817;28;20176;-73
2022/09/14 08:36:26;;;;;;;6.53;5.03;;;20.50;99.90;;;;;;5085260;28;20171;-73
2022/09/14 08:38:57;;;;;;;6.63;4.72;;;20.50;99.90;;;;;;5082078;28;20199;-73
2022/09/14 08:41:39;;;;;;;5.70;4.40;;;20.50;99.90;;;;;;5087261;28;20244;-72
2022/09/14 08:44:15;;;;;;;6.75;5.15;;;20.50;99.90;;;;;;5088056;28;20164;-74
2022/09/14 08:46:55;;;;;;;5.97;4.63;;;20.50;99.90;;;;;;5078604;28;20210;-74
2022/09/14 08:49:39;;;;;;;5.80;4.72;;;20.50;99.90;;;;;;5080628;28;20188;-72
2022/09/14 08:52:12;;;;;;;5.93;4.68;;;20.50;99.90;;;;;;5086656;28;20192;-71
2022/09/14 08:54:42;;;;;;;6.07;4.78;;;20.50;99.90;;;;;;5093486;28;20140;-72
2022/09/14 08:57:21;;;;;;;7.22;4.93;;;20.50;99.90;;;;;;5081661;28;20167;-72
2022/09/14 09:00:07;;;;;;;5.38;4.68;;;20.50;99.90;;;;;;5083663;28;20192;-73
2022/09/14 09:02:32;;;;;;;5.32;4.82;;;20.50;99.90;;;;;;5069122;28;20253;-73
2022/09/14 09:05:29;;;;;;;5.20;4.28;;;20.40;99.90;;;;;;5059449;28;20208;-73
2022/09/14 09:08:00;;;;;;;5.57;5.00;;;20.40;99.90;;;;;;5060812;28;20279;-74
2022/09/14 09:10:27;;;;;;;5.88;4.28;;;20.40;99.90;;;;;;5073233;28;20175;-73
2022/09/14 09:12:59;;;;;;;4.45;4.05;;;20.30;99.90;;;;;;5077998;28;20179;-73
2022/09/14 09:15:38;;;;;;;4.72;4.32;;;20.30;99.90;;;;;;5082430;28;20478;-74
2022/09/14 09:18:19;;;;;;;4.20;3.80;;;20.30;99.90;;;;;;5061213;28;20211;-73
2022/09/14 09:20:49;;;;;;;3.47;3.17;;;20.20;99.90;;;;;;5062802;28;20180;-74
2022/09/14 09:23:23;;;;;;;3.45;3.15;;;20.20;99.90;;;;;;5063687;28;20173;-74
2022/09/14 09:26:10;;;;;;;3.90;3.50;;;20.20;99.90;;;;;;5084545;28;20278;-73
2022/09/14 09:28:53;;;;;;;3.55;3.25;;;20.20;99.90;;;;;;5067745;28;20180;-73
2022/09/14 09:31:43;;;;;;;5.40;3.10;;;20.20;99.90;;;;;;5072291;28;20206;-72
2022/09/14 09:34:13;;;;;;;3.40;3.10;;;20.20;99.90;;;;;;5086220;28;20188;-73
2022/09/14 09:36:41;;;;;;;3.65;3.17;;;20.10;99.90;;;;;;5084096;28;20153;-73
2022/09/14 09:39:07;;;;;;;4.22;3.83;;;20.10;99.90;;;;;;5067463;28;20177;-73
2022/09/14 09:41:45;;;;;;;4.30;3.90;;;20.10;99.90;;;;;;5084281;28;20179;-74
2022/09/14 09:44:10;;;;;;;5.38;4.68;;;20.10;99.90;;;;;;5083037;28;20230;-73
2022/09/14 09:46:38;;;;;;;5.00;4.50;;;20.00;99.90;;;;;;5075672;28;20224;-74
2022/09/14 09:49:17;;;;;;;5.32;4.90;;;20.00;99.90;;;;;;5061954;28;20180;-73
2022/09/14 09:51:46;;;;;;;5.47;4.97;;;20.00;99.90;;;;;;5082180;28;20203;-73
2022/09/14 09:54:12;;;;;;;5.95;5.28;;;20.00;99.90;;;;;;5086327;28;20168;-74
2022/09/14 09:56:53;;;;;;;5.70;5.20;;;19.90;99.90;;;;;;5091364;28;20186;-74
2022/09/14 09:59:36;;;;;;;5.63;5.10;;;19.90;99.90;;;;;;5094033;28;20179;-72
2022/09/14 10:02:30;;;;;;;6.40;5.80;;;19.90;99.90;;;;;;5080597;28;20200;-73
2022/09/14 10:04:58;;;;;;;5.32;4.82;;;19.90;99.90;;;;;;5087694;28;20195;-72
2022/09/14 10:07:27;;;;;;;6.03;5.43;;;20.00;99.90;;;;;;5081937;28;20200;-73
2022/09/14 10:10:07;;;;;;;5.75;5.15;;;20.00;99.90;;;;;;5083755;28;20176;-73
2022/09/14 10:12:40;;;;;;;5.93;5.43;;;20.00;99.90;;;;;;5086511;28;20167;-72
2022/09/14 10:15:19;;;;;;;5.50;5.00;;;20.00;99.90;;;;;;5063815;28;20191;-73
2022/09/14 10:18:09;;;;;;;6.28;5.68;;;20.00;99.90;;;;;;5067143;28;20207;-73
2022/09/14 10:20:50;;;;;;;5.97;5.47;;;20.10;99.90;;;;;;5064776;28;20187;-74
2022/09/14 10:23:24;;;;;;;6.40;5.80;;;20.10;99.90;;;;;;5088595;28;20180;-74
2022/09/14 10:26:14;;;;;;;7.20;6.50;;;20.10;99.90;;;;;;5083771;28;20199;-74
2022/09/14 10:28:41;;;;;;;7.03;6.32;;;20.10;99.90;;;;;;5064257;28;20242;-74
2022/09/14 10:31:10;;;;;;;7.25;6.55;;;20.10;99.90;;;;;;5079093;28;20223;-73
2022/09/14 10:33:37;;;;;;;8.32;7.55;;;20.10;99.90;;;;;;5084226;28;20172;-74
2022/09/14 10:36:24;;;;;;;10.32;9.23;;;20.20;99.90;;;;;;5078920;28;20173;-73
2022/09/14 10:39:25;;;;;;;9.35;8.45;;;20.10;99.90;;;;;;5059675;28;20176;-74
2022/09/14 10:42:17;;;;;;;9.70;8.70;;;20.10;99.90;;;;;;5065380;28;20177;-74
2022/09/14 10:44:56;;;;;;;10.25;9.15;;;20.10;99.90;;;;;;5078411;28;20277;-73
2022/09/14 10:47:35;;;;;;;11.13;9.85;;;20.10;99.90;;;;;;5080290;28;20195;-73
2022/09/14 10:50:19;;;;;;;11.25;10.05;;;20.00;99.90;;;;;;5080626;28;20202;-73
2022/09/14 10:53:06;;;;;;;12.82;11.32;;;20.00;99.90;;;;;;5080225;28;20259;-74
2022/09/14 10:55:50;;;;;;;13.50;11.95;;;20.00;99.90;;;;;;5068211;28;20176;-74
2022/09/14 10:59:00;;;;;;;11.05;9.88;;;20.00;99.90;;;;;;5079064;28;20199;-74
2022/09/14 11:01:36;;;;;;;11.68;10.48;;;19.90;99.90;;;;;;5085150;28;20176;-73
2022/09/14 11:04:20;;;;;;;12.95;10.60;;;19.90;99.90;;;;;;5078709;28;20191;-72
2022/09/14 11:06:59;;;;;;;13.27;10.30;;;19.80;99.90;;;;;;5063141;28;20207;-72
2022/09/14 11:09:51;;;;;;;11.07;9.85;;;19.70;99.90;;;;;;5074032;28;20194;-71
2022/09/14 11:12:56;;;;;;;14.77;12.23;;;19.70;99.90;;;;;;5080422;28;20167;-71
2022/09/14 11:15:56;;;;;;;22.67;14.70;;;19.60;99.90;;;;;;5083774;28;20163;-70
2022/09/14 11:18:43;;;;;;;18.33;13.95;;;19.60;99.90;;;;;;5060152;28;20212;-70
2022/09/14 11:21:19;;;;;;;18.50;14.35;;;19.50;99.90;;;;;;5059596;28;20206;-70
2022/09/14 11:24:01;;;;;;;20.48;14.90;;;19.50;99.90;;;;;;5077520;28;20192;-70
2022/09/14 11:26:33;;;;;;;18.33;14.40;;;19.50;99.90;;;;;;5079845;28;20184;-70
2022/09/14 11:29:27;;;;;;;20.35;15.15;;;19.50;99.90;;;;;;5064600;28;20192;-71
2022/09/14 11:32:29;;;;;;;18.42;14.95;;;19.50;99.90;;;;;;5077114;28;20517;-69
2022/09/14 11:35:24;;;;;;;24.48;18.08;;;19.50;99.90;;;;;;5080113;28;20160;-70
2022/09/14 11:37:55;;;;;;;21.25;16.08;;;19.50;99.90;;;;;;5058548;28;20209;-70
2022/09/14 11:40:31;;;;;;;18.90;14.73;;;19.50;99.90;;;;;;5070089;28;20186;-70
2022/09/14 11:43:15;;;;;;;20.40;15.48;;;19.50;99.90;;;;;;5075858;28;20188;-70
2022/09/14 11:45:47;;;;;;;17.08;14.05;;;19.50;99.90;;;;;;5059592;28;20168;-70
2022/09/14 11:48:16;;;;;;;16.80;13.95;;;19.50;99.90;;;;;;5059934;28;20207;-70
2022/09/14 11:50:50;;;;;;;17.00;14.10;;;19.50;99.90;;;;;;5075736;28;20195;-70
2022/09/14 11:53:18;;;;;;;14.68;12.57;;;19.50;99.90;;;;;;5079835;28;20172;-70
2022/09/14 11:55:48;;;;;;;16.02;13.45;;;19.60;99.90;;;;;;5059765;28;20168;-70
2022/09/14 11:58:23;;;;;;;17.55;14.55;;;19.60;99.90;;;;;;5074350;28;20225;-70
2022/09/14 12:00:58;;;;;;;14.57;13.00;;;19.60;99.90;;;;;;5074358;28;20180;-70
2022/09/14 12:03:58;;;;;;;13.90;12.30;;;19.70;99.90;;;;;;5068819;28;20196;-70
2022/09/14 12:06:30;;;;;;;16.35;14.30;;;19.80;99.90;;;;;;5070112;28;20171;-70
2022/09/14 12:09:23;;;;;;;16.08;13.80;;;19.80;99.90;;;;;;5059709;28;20281;-71
2022/09/14 12:11:59;;;;;;;15.95;13.93;;;19.90;99.90;;;;;;5077541;28;20168;-71
2022/09/14 12:14:28;;;;;;;15.88;13.82;;;20.00;99.90;;;;;;5079148;28;20180;-71
2022/09/14 12:17:04;;;;;;;16.67;14.77;;;20.10;99.90;;;;;;5078089;28;20196;-72
2022/09/14 12:19:31;;;;;;;16.83;14.10;;;20.20;99.90;;;;;;5084001;28;20239;-71
2022/09/14 12:22:32;;;;;;;13.60;12.20;;;20.30;99.90;;;;;;5081568;28;20195;-72
2022/09/14 12:25:09;;;;;;;11.52;10.32;;;20.40;99.90;;;;;;5080490;28;20237;-72
2022/09/14 12:27:38;;;;;;;11.15;10.05;;;20.40;99.90;;;;;;5056841;28;20273;-73
2022/09/14 12:30:39;;;;;;;10.15;9.23;;;20.50;99.90;;;;;;5077771;28;20198;-74
2022/09/14 12:33:30;;;;;;;10.48;9.48;;;20.50;99.90;;;;;;5036098;28;20210;-72
2022/09/14 12:36:31;;;;;;;9.90;8.98;;;20.50;99.90;;;;;;5080420;28;20199;-72
2022/09/14 12:38:58;;;;;;;9.50;8.60;;;20.50;99.90;;;;;;5079799;28;20176;-73
2022/09/14 12:41:24;;;;;;;10.07;9.10;;;20.50;99.90;;;;;;5081161;28;20199;-72
2022/09/14 12:43:49;;;;;;;10.45;9.45;;;20.50;99.90;;;;;;5079038;28;20172;-73
2022/09/14 12:46:21;;;;;;;10.15;9.15;;;20.50;99.90;;;;;;5080679;28;20233;-73
2022/09/14 12:48:47;;;;;;;10.27;9.32;;;20.40;99.90;;;;;;5076197;28;20236;-74
2022/09/14 12:51:28;;;;;;;9.68;8.77;;;20.40;99.90;;;;;;5077771;28;20187;-72
2022/09/14 12:53:57;;;;;;;9.18;8.27;;;20.30;99.90;;;;;;5083803;28;20210;-73
2022/09/14 12:56:35;;;;;;;8.77;7.97;;;20.30;99.90;;;;;;5078386;28;20172;-73
2022/09/14 12:59:29;;;;;;;8.77;7.82;;;20.30;99.90;;;;;;5065310;28;20226;-72
2022/09/14 13:02:23;;;;;;;8.35;7.55;;;20.20;99.90;;;;;;5048896;28;20262;-73
2022/09/14 13:04:55;;;;;;;8.32;7.53;;;20.20;99.90;;;;;;5080347;28;20173;-73
2022/09/14 13:07:22;;;;;;;8.90;8.00;;;20.20;99.90;;;;;;5076777;28;20215;-69
2022/09/14 13:09:52;;;;;;;10.52;9.43;;;20.10;99.90;;;;;;5062603;28;20171;-73
2022/09/14 13:12:39;;;;;;;10.27;9.27;;;20.10;99.90;;;;;;5077662;28;20159;-73